Salt Creek, Ohio
Current Conditions -  °F | °C
As of 3:53 AM on Monday 24 Nov 2014 (Local Time) from KPHD Reporting Station
Light Rain Light Rain  
Wind Chill: 59°   Ceiling: 1500
Heat Index: 59°   Visibility: 4mi
Dew Point: 55°   Wind: 13mph
Humidity: 87%   Direction: 200°SSW
Pressure: 29.36"   Gusts: 26mph
Location:  40.6236°N, 81.7849°W
Report Text: KPHD 240853Z AUTO 20011G23KT 4SM -RA BR BKN015 BKN021 OVC033 15/13 A2936 RMK AO2 PK WND 17027/0758 RAB0759 SLP939 P0002 60003 T01500128 55002
Loading
Personal Weather Stations






























Interactive Weather Map New forecast layout! Learn more

10-Day Weather Forecast

Advertisements
Track Severe Weather on mobile